Time;durP1;ratioP1;P1;durP2;ratioP2;P2;SDS_P1;SDS_P2;PMS_P1;PMS_P2;Temp;Humidity;BMP_temperature;BMP_pressure;BME280_temperature;BME280_humidity;BME280_pressure;Samples;Min_cycle;Max_cycle;Signal;HPM_P1;HPM_P2
2022/01/15 00:00:38;;;;;;;52.30;26.83;;;;;;;;;;5062864;28;20041;-79
2022/01/15 00:03:04;;;;;;;59.63;28.70;;;;;;;;;;5064936;28;20051;-79
2022/01/15 00:05:31;;;;;;;58.53;28.30;;;;;;;;;;5049399;28;20052;-80
2022/01/15 00:07:57;;;;;;;52.35;27.65;;;;;;;;;;5062987;28;20064;-79
2022/01/15 00:10:27;;;;;;;55.83;29.35;;;;;;;;;;5046074;28;20048;-79
2022/01/15 00:12:53;;;;;;;52.40;28.13;;;;;;;;;;5045622;28;20040;-79
2022/01/15 00:15:25;;;;;;;55.50;29.92;;;;;;;;;;5044214;28;20068;-81
2022/01/15 00:18:00;;;;;;;52.22;28.05;;;;;;;;;;5045375;28;20385;-79
2022/01/15 00:20:27;;;;;;;55.97;29.30;;;;;;;;;;5045154;28;20035;-80
2022/01/15 00:22:53;;;;;;;58.30;28.10;;;;;;;;;;5061140;28;20032;-80
2022/01/15 00:25:19;;;;;;;57.60;29.95;;;;;;;;;;5062817;28;20041;-80
2022/01/15 00:27:45;;;;;;;58.83;28.58;;;;;;;;;;5071950;28;20071;-78
2022/01/15 00:30:12;;;;;;;55.90;28.40;;;;;;;;;;5071945;28;20486;-80
2022/01/15 00:32:38;;;;;;;62.92;31.70;;;;;;;;;;5042672;28;20049;-79
2022/01/15 00:35:04;;;;;;;60.13;31.67;;;;;;;;;;5060066;28;20079;-80
2022/01/15 00:37:31;;;;;;;57.80;31.13;;;;;;;;;;5061220;28;20045;-80
2022/01/15 00:40:01;;;;;;;62.05;32.55;;;;;;;;;;5060703;28;20064;-80
2022/01/15 00:42:27;;;;;;;60.83;30.83;;;;;;;;;;5059737;28;20032;-81
2022/01/15 00:44:55;;;;;;;62.67;31.35;;;;;;;;;;5059197;28;20044;-80
2022/01/15 00:47:21;;;;;;;61.88;30.48;;;;;;;;;;5061868;28;20045;-80
2022/01/15 00:49:47;;;;;;;56.53;29.65;;;;;;;;;;5061594;28;20045;-80
2022/01/15 00:52:13;;;;;;;55.53;29.10;;;;;;;;;;5060625;28;20059;-81
2022/01/15 00:54:39;;;;;;;53.47;28.50;;;;;;;;;;5060362;28;20120;-80
2022/01/15 00:57:05;;;;;;;54.63;29.58;;;;;;;;;;5059363;28;20077;-79
2022/01/15 00:59:31;;;;;;;55.63;28.88;;;;;;;;;;5060798;28;20037;-80
2022/01/15 01:01:57;;;;;;;50.47;27.48;;;;;;;;;;5063771;28;20033;-79
2022/01/15 01:04:23;;;;;;;47.92;26.08;;;;;;;;;;5063910;28;20036;-79
2022/01/15 01:06:49;;;;;;;45.20;25.05;;;;;;;;;;5042824;28;20049;-80
2022/01/15 01:09:15;;;;;;;47.58;25.40;;;;;;;;;;5045244;28;20121;-80
2022/01/15 01:11:46;;;;;;;41.00;23.95;;;;;;;;;;5063054;28;20041;-80
2022/01/15 01:24:51;;;;;;;43.17;24.25;;;;;;;;;;5058767;28;20045;-81
2022/01/15 01:27:25;;;;;;;39.00;22.10;;;;;;;;;;5059472;28;20037;-79
2022/01/15 01:30:13;;;;;;;40.25;22.15;;;;;;;;;;5060197;28;20102;-80
2022/01/15 01:32:48;;;;;;;43.50;22.67;;;;;;;;;;5060906;28;20037;-80
2022/01/15 01:35:32;;;;;;;41.15;21.52;;;;;;;;;;5060976;28;20040;-80
2022/01/15 01:38:07;;;;;;;37.20;21.60;;;;;;;;;;5060216;28;20106;-79
2022/01/15 01:40:39;;;;;;;39.42;21.02;;;;;;;;;;5057847;28;20049;-79
2022/01/15 01:43:49;;;;;;;35.28;20.63;;;;;;;;;;5059001;28;20036;-80
2022/01/15 01:46:14;;;;;;;36.08;20.88;;;;;;;;;;5055240;28;20041;-80
2022/01/15 01:48:41;;;;;;;36.00;20.77;;;;;;;;;;5056903;28;20041;-80
2022/01/15 01:51:07;;;;;;;37.65;21.70;;;;;;;;;;5038882;28;20044;-80
2022/01/15 01:53:33;;;;;;;35.35;18.80;;;;;;;;;;5058166;28;20037;-80
2022/01/15 01:55:59;;;;;;;33.70;20.67;;;;;;;;;;5039316;28;20049;-79
2022/01/15 01:58:25;;;;;;;32.92;18.90;;;;;;;;;;5055769;28;20491;-79
2022/01/15 02:00:51;;;;;;;33.65;19.35;;;;;;;;;;5064383;28;20037;-79
2022/01/15 02:03:17;;;;;;;36.05;19.90;;;;;;;;;;5050181;28;20033;-79
2022/01/15 02:05:43;;;;;;;33.42;19.45;;;;;;;;;;5059891;28;20083;-80
2022/01/15 02:08:09;;;;;;;34.63;19.75;;;;;;;;;;5041869;28;20043;-79
2022/01/15 02:10:35;;;;;;;36.50;20.02;;;;;;;;;;5058559;28;20036;-79
2022/01/15 02:13:01;;;;;;;32.53;19.77;;;;;;;;;;5066795;28;20076;-80
2022/01/15 02:15:27;;;;;;;39.03;20.38;;;;;;;;;;5048594;28;20096;-79
2022/01/15 02:17:54;;;;;;;35.40;20.33;;;;;;;;;;5043258;28;20037;-79
2022/01/15 02:25:47;;;;;;;33.35;18.35;;;;;;;;;;5061874;28;20041;-79
2022/01/15 02:28:14;;;;;;;33.15;19.60;;;;;;;;;;5045575;28;20041;-79
2022/01/15 02:30:40;;;;;;;35.95;19.80;;;;;;;;;;5043143;28;20077;-79
2022/01/15 02:33:06;;;;;;;38.90;20.00;;;;;;;;;;5059902;28;20045;-78
2022/01/15 02:35:32;;;;;;;32.00;17.88;;;;;;;;;;5058703;28;20053;-79
2022/01/15 02:38:02;;;;;;;34.13;19.40;;;;;;;;;;5058055;28;20040;-79
2022/01/15 02:40:28;;;;;;;41.80;19.45;;;;;;;;;;5058387;28;20041;-78
2022/01/15 02:42:56;;;;;;;32.63;19.20;;;;;;;;;;5059873;28;20055;-79
2022/01/15 02:45:23;;;;;;;31.10;18.65;;;;;;;;;;5051713;28;20060;-78
2022/01/15 02:48:02;;;;;;;34.55;18.70;;;;;;;;;;5058639;28;20426;-77
2022/01/15 02:50:28;;;;;;;32.80;19.10;;;;;;;;;;5059293;28;20071;-78
2022/01/15 02:52:54;;;;;;;33.28;18.15;;;;;;;;;;5039377;28;20371;-78
2022/01/15 02:55:20;;;;;;;32.72;18.73;;;;;;;;;;5039448;28;20120;-78
2022/01/15 02:57:46;;;;;;;33.75;19.13;;;;;;;;;;5056133;28;20045;-78
2022/01/15 03:00:12;;;;;;;34.50;19.35;;;;;;;;;;5040099;28;20105;-79
2022/01/15 03:02:38;;;;;;;25.30;16.08;;;;;;;;;;5057142;28;20037;-79
2022/01/15 03:05:04;;;;;;;32.13;17.05;;;;;;;;;;5040564;28;20037;-79
2022/01/15 03:07:30;;;;;;;31.20;17.67;;;;;;;;;;5068152;28;20120;-78
2022/01/15 03:09:56;;;;;;;32.03;17.50;;;;;;;;;;5043862;28;20076;-80
2022/01/15 03:12:23;;;;;;;29.55;17.08;;;;;;;;;;5043809;28;20045;-79
2022/01/15 03:14:49;;;;;;;30.60;16.02;;;;;;;;;;5046472;28;20040;-79
2022/01/15 03:17:15;;;;;;;27.30;15.52;;;;;;;;;;5044016;28;20041;-77
2022/01/15 03:19:42;;;;;;;29.67;16.13;;;;;;;;;;5060365;28;20112;-79
2022/01/15 03:22:07;;;;;;;28.48;15.75;;;;;;;;;;5047183;28;20140;-78
2022/01/15 03:24:33;;;;;;;28.05;14.25;;;;;;;;;;5063903;28;20444;-79
2022/01/15 03:26:59;;;;;;;25.58;14.35;;;;;;;;;;5063647;28;20084;-78
2022/01/15 03:29:25;;;;;;;23.67;13.73;;;;;;;;;;5045925;28;20045;-79
2022/01/15 03:31:51;;;;;;;22.77;12.68;;;;;;;;;;5044493;28;20045;-80
2022/01/15 03:34:17;;;;;;;16.83;9.15;;;;;;;;;;5044506;28;20076;-80
2022/01/15 03:36:43;;;;;;;13.65;8.65;;;;;;;;;;5061013;28;20045;-79
2022/01/15 03:39:09;;;;;;;13.85;8.50;;;;;;;;;;5045640;28;20441;-79
2022/01/15 03:41:35;;;;;;;13.13;8.13;;;;;;;;;;5061702;28;20087;-79
2022/01/15 03:44:01;;;;;;;14.13;8.25;;;;;;;;;;5045277;28;20036;-79
2022/01/15 03:46:27;;;;;;;12.27;7.95;;;;;;;;;;5061637;28;20036;-80
2022/01/15 03:48:53;;;;;;;16.15;8.85;;;;;;;;;;5045007;28;20539;-80
2022/01/15 03:51:19;;;;;;;17.48;8.15;;;;;;;;;;5045369;28;20122;-80
2022/01/15 03:53:46;;;;;;;13.98;7.88;;;;;;;;;;5044767;28;20090;-80
2022/01/15 03:56:12;;;;;;;14.40;8.70;;;;;;;;;;5060855;28;20048;-79
2022/01/15 03:58:38;;;;;;;15.88;8.90;;;;;;;;;;5044752;28;20036;-79
2022/01/15 04:01:04;;;;;;;13.43;8.20;;;;;;;;;;5062962;28;20063;-79
2022/01/15 04:03:30;;;;;;;14.13;8.30;;;;;;;;;;5062066;28;20331;-80
2022/01/15 04:05:56;;;;;;;13.68;7.95;;;;;;;;;;5044508;28;20041;-80
2022/01/15 04:08:22;;;;;;;13.18;8.50;;;;;;;;;;5061991;28;20039;-79
2022/01/15 04:10:48;;;;;;;13.10;7.88;;;;;;;;;;5045983;28;20128;-78
2022/01/15 04:13:15;;;;;;;13.45;8.95;;;;;;;;;;5061429;28;20448;-80
2022/01/15 04:15:42;;;;;;;12.88;9.23;;;;;;;;;;5061067;28;20047;-80
2022/01/15 04:18:08;;;;;;;13.85;8.77;;;;;;;;;;5060097;28;20049;-80
2022/01/15 04:20:35;;;;;;;14.98;8.90;;;;;;;;;;5062016;28;20057;-80
2022/01/15 04:23:01;;;;;;;15.25;9.52;;;;;;;;;;5048148;28;20437;-80
2022/01/15 04:25:27;;;;;;;15.57;9.63;;;;;;;;;;5059344;28;20032;-79
2022/01/15 04:27:56;;;;;;;16.27;9.43;;;;;;;;;;5044450;28;20037;-79
2022/01/15 04:30:24;;;;;;;17.95;9.85;;;;;;;;;;5045051;28;20123;-79
2022/01/15 04:32:51;;;;;;;20.08;11.50;;;;;;;;;;5047295;28;20040;-79
2022/01/15 04:35:17;;;;;;;18.48;10.88;;;;;;;;;;5048497;28;20040;-80
2022/01/15 04:37:49;;;;;;;19.35;10.93;;;;;;;;;;5052673;28;20507;-80
2022/01/15 04:40:16;;;;;;;18.13;11.75;;;;;;;;;;5068618;28;20062;-78
2022/01/15 04:42:42;;;;;;;19.73;11.63;;;;;;;;;;5073164;28;20045;-80
2022/01/15 04:45:08;;;;;;;20.35;12.40;;;;;;;;;;5054533;28;20075;-79
2022/01/15 04:47:37;;;;;;;24.40;14.23;;;;;;;;;;5062735;28;20056;-79
2022/01/15 04:50:04;;;;;;;26.35;15.18;;;;;;;;;;5062197;28;20041;-77
2022/01/15 04:52:30;;;;;;;23.08;14.15;;;;;;;;;;5069076;28;20033;-78
2022/01/15 04:54:56;;;;;;;23.98;14.15;;;;;;;;;;5059547;28;20053;-79
2022/01/15 04:57:22;;;;;;;24.08;15.02;;;;;;;;;;5059183;28;20072;-79
2022/01/15 04:59:48;;;;;;;23.67;14.98;;;;;;;;;;5040191;28;20037;-81
2022/01/15 05:02:14;;;;;;;25.05;15.02;;;;;;;;;;5059922;28;20064;-79
2022/01/15 05:04:40;;;;;;;24.08;14.20;;;;;;;;;;5070504;28;20067;-79
2022/01/15 05:07:06;;;;;;;23.23;14.05;;;;;;;;;;5061883;28;20452;-80
2022/01/15 05:09:32;;;;;;;25.10;14.93;;;;;;;;;;5058305;28;20123;-80
2022/01/15 05:12:03;;;;;;;22.13;13.90;;;;;;;;;;5059775;28;20119;-81
2022/01/15 05:14:29;;;;;;;21.75;12.82;;;;;;;;;;5045524;28;20048;-80
2022/01/15 05:16:55;;;;;;;21.20;12.93;;;;;;;;;;5063048;28;20072;-80
2022/01/15 05:19:21;;;;;;;19.58;12.98;;;;;;;;;;5063644;28;20037;-80
2022/01/15 05:21:47;;;;;;;20.42;13.07;;;;;;;;;;5060642;28;20124;-78
2022/01/15 05:24:13;;;;;;;21.67;12.75;;;;;;;;;;5061757;28;20029;-81
2022/01/15 05:26:39;;;;;;;22.23;12.85;;;;;;;;;;5062483;28;20047;-79
2022/01/15 05:29:05;;;;;;;20.52;12.02;;;;;;;;;;5042783;28;20040;-79
2022/01/15 05:31:31;;;;;;;21.23;12.40;;;;;;;;;;5045274;28;20112;-78
2022/01/15 05:33:57;;;;;;;20.27;13.02;;;;;;;;;;5043165;28;20078;-79
2022/01/15 05:36:23;;;;;;;22.55;13.18;;;;;;;;;;5060645;28;20040;-78
2022/01/15 05:38:49;;;;;;;19.10;12.70;;;;;;;;;;5059663;28;20035;-81
2022/01/15 05:41:15;;;;;;;21.48;13.18;;;;;;;;;;5042981;28;20078;-81
2022/01/15 05:43:41;;;;;;;20.33;13.13;;;;;;;;;;5061688;28;20037;-81
2022/01/15 05:46:07;;;;;;;24.08;13.43;;;;;;;;;;5062139;28;20051;-80
2022/01/15 05:48:33;;;;;;;20.27;12.90;;;;;;;;;;5062479;28;20068;-80
2022/01/15 05:50:59;;;;;;;21.10;12.80;;;;;;;;;;5045626;28;20041;-80
2022/01/15 05:53:25;;;;;;;20.00;12.82;;;;;;;;;;5044095;28;20072;-79
2022/01/15 05:55:51;;;;;;;23.70;13.73;;;;;;;;;;5041349;28;20057;-80
2022/01/15 05:58:17;;;;;;;23.48;14.15;;;;;;;;;;5059249;28;20044;-79
2022/01/15 06:00:43;;;;;;;24.90;13.50;;;;;;;;;;5060765;28;20036;-80
2022/01/15 06:03:09;;;;;;;26.00;13.85;;;;;;;;;;5059762;28;20041;-80
2022/01/15 06:05:35;;;;;;;25.30;14.32;;;;;;;;;;5058500;28;20056;-80
2022/01/15 06:08:01;;;;;;;24.10;14.05;;;;;;;;;;5065839;28;20101;-79
2022/01/15 06:10:27;;;;;;;22.00;13.82;;;;;;;;;;5059968;28;20037;-80
2022/01/15 06:12:53;;;;;;;29.67;15.65;;;;;;;;;;5042000;28;20048;-79
2022/01/15 06:15:19;;;;;;;22.95;14.40;;;;;;;;;;5042200;28;20437;-78
2022/01/15 06:17:45;;;;;;;26.27;14.23;;;;;;;;;;5041734;28;20053;-80
2022/01/15 06:20:12;;;;;;;29.10;15.60;;;;;;;;;;5059096;28;20072;-80
2022/01/15 06:22:38;;;;;;;25.70;15.27;;;;;;;;;;5058516;28;20045;-79
2022/01/15 06:25:04;;;;;;;27.77;15.75;;;;;;;;;;5058868;28;20075;-79
2022/01/15 06:27:31;;;;;;;27.75;15.43;;;;;;;;;;5058549;28;20848;-79
2022/01/15 06:29:57;;;;;;;27.98;16.48;;;;;;;;;;5057805;28;20048;-78
2022/01/15 06:32:24;;;;;;;30.90;16.98;;;;;;;;;;5041924;28;20045;-79
2022/01/15 06:34:50;;;;;;;30.52;17.73;;;;;;;;;;5046484;28;20036;-79
2022/01/15 06:37:16;;;;;;;30.17;17.00;;;;;;;;;;5048157;28;20036;-78
2022/01/15 06:39:42;;;;;;;29.80;17.60;;;;;;;;;;5064076;28;20342;-78
2022/01/15 06:42:08;;;;;;;28.17;16.42;;;;;;;;;;5066071;28;20052;-78
2022/01/15 06:44:34;;;;;;;36.50;17.67;;;;;;;;;;5059273;28;20095;-78
2022/01/15 06:47:00;;;;;;;33.17;18.00;;;;;;;;;;5042409;28;20072;-80
2022/01/15 06:49:26;;;;;;;28.52;16.63;;;;;;;;;;5042939;28;20037;-79
2022/01/15 06:51:52;;;;;;;29.58;17.27;;;;;;;;;;5058122;28;20036;-80
2022/01/15 06:54:18;;;;;;;32.00;16.83;;;;;;;;;;5040573;28;20124;-79
2022/01/15 06:56:44;;;;;;;32.13;16.63;;;;;;;;;;5042835;28;20081;-79
2022/01/15 06:59:10;;;;;;;29.90;17.15;;;;;;;;;;5062017;28;20425;-79
2022/01/15 07:01:36;;;;;;;29.40;17.02;;;;;;;;;;5044926;28;20060;-79
2022/01/15 07:04:02;;;;;;;32.20;17.08;;;;;;;;;;5062311;28;20048;-78
2022/01/15 07:06:28;;;;;;;31.83;18.15;;;;;;;;;;5068634;28;20037;-82
2022/01/15 07:08:54;;;;;;;31.55;17.23;;;;;;;;;;5057639;28;20044;-81
2022/01/15 07:11:20;;;;;;;30.25;17.83;;;;;;;;;;5058180;28;20037;-83
2022/01/15 07:13:46;;;;;;;29.67;17.15;;;;;;;;;;5044417;28;20037;-84
2022/01/15 07:16:12;;;;;;;28.02;16.05;;;;;;;;;;5045781;28;20514;-82
2022/01/15 07:18:38;;;;;;;28.90;16.90;;;;;;;;;;5060679;28;20115;-83
2022/01/15 07:21:04;;;;;;;29.55;16.45;;;;;;;;;;5061550;28;20037;-83
2022/01/15 07:23:30;;;;;;;27.27;17.25;;;;;;;;;;5044522;28;20037;-83
2022/01/15 07:25:56;;;;;;;26.15;16.10;;;;;;;;;;5043795;28;20037;-81
2022/01/15 07:28:24;;;;;;;27.48;16.65;;;;;;;;;;5059673;28;20048;-82
2022/01/15 07:30:50;;;;;;;25.65;14.02;;;;;;;;;;5044453;28;20097;-82
2022/01/15 07:33:16;;;;;;;22.98;14.68;;;;;;;;;;5061580;28;20138;-82
2022/01/15 07:35:43;;;;;;;27.25;15.13;;;;;;;;;;5061948;28;20041;-83
2022/01/15 07:38:09;;;;;;;25.63;14.50;;;;;;;;;;5061986;28;20040;-81
2022/01/15 07:40:35;;;;;;;26.30;16.08;;;;;;;;;;5045600;28;20090;-81
2022/01/15 07:43:01;;;;;;;27.38;16.40;;;;;;;;;;5062172;28;20041;-79
2022/01/15 07:45:27;;;;;;;28.17;16.42;;;;;;;;;;5061514;28;20044;-80
2022/01/15 07:47:53;;;;;;;29.50;18.05;;;;;;;;;;5063127;28;20037;-82
2022/01/15 07:50:23;;;;;;;31.05;17.58;;;;;;;;;;5060053;28;20055;-82
2022/01/15 07:52:53;;;;;;;31.08;17.33;;;;;;;;;;5062843;28;20048;-83
2022/01/15 07:55:19;;;;;;;33.20;18.58;;;;;;;;;;5061856;28;20413;-82
2022/01/15 07:57:45;;;;;;;30.58;17.25;;;;;;;;;;5061862;28;20072;-83
2022/01/15 08:00:12;;;;;;;32.20;16.73;;;;;;;;;;5061525;28;20044;-82
2022/01/15 08:02:38;;;;;;;29.55;16.50;;;;;;;;;;5046316;28;20075;-83
2022/01/15 08:05:05;;;;;;;30.70;17.13;;;;;;;;;;5063508;28;20376;-82
2022/01/15 08:07:31;;;;;;;30.35;16.13;;;;;;;;;;5061831;28;20052;-81
2022/01/15 08:09:57;;;;;;;26.58;14.90;;;;;;;;;;5061291;28;20049;-82
2022/01/15 08:12:23;;;;;;;23.50;14.43;;;;;;;;;;5062935;28;20348;-80
2022/01/15 08:14:50;;;;;;;22.52;13.00;;;;;;;;;;5044904;28;20049;-81
2022/01/15 08:17:16;;;;;;;23.75;13.90;;;;;;;;;;5060288;28;20119;-82
2022/01/15 08:19:42;;;;;;;22.58;12.35;;;;;;;;;;5045867;28;20037;-81
2022/01/15 08:22:10;;;;;;;26.05;14.50;;;;;;;;;;5060985;28;20063;-80
2022/01/15 08:24:36;;;;;;;21.38;12.30;;;;;;;;;;5045228;28;20041;-81
2022/01/15 08:27:02;;;;;;;24.08;13.43;;;;;;;;;;5045803;28;20041;-82
2022/01/15 08:29:28;;;;;;;20.45;12.35;;;;;;;;;;5061804;28;20375;-82
2022/01/15 08:31:56;;;;;;;21.38;12.63;;;;;;;;;;5060937;28;20461;-82
2022/01/15 08:34:22;;;;;;;21.80;13.13;;;;;;;;;;5061494;28;20041;-83
2022/01/15 08:36:48;;;;;;;18.70;11.77;;;;;;;;;;5064682;28;20041;-83
2022/01/15 08:39:14;;;;;;;21.70;12.52;;;;;;;;;;5066694;28;20041;-80
2022/01/15 08:41:40;;;;;;;23.85;13.27;;;;;;;;;;5052075;28;20040;-83
2022/01/15 08:44:06;;;;;;;19.02;11.68;;;;;;;;;;5044003;28;20041;-82
2022/01/15 08:46:33;;;;;;;24.48;12.18;;;;;;;;;;5042831;28;20040;-83
2022/01/15 08:48:59;;;;;;;18.95;12.30;;;;;;;;;;5061633;28;20036;-82
2022/01/15 08:51:24;;;;;;;24.55;12.57;;;;;;;;;;5061715;28;20047;-81
2022/01/15 08:53:50;;;;;;;21.27;12.80;;;;;;;;;;5062295;28;20095;-81
2022/01/15 08:56:17;;;;;;;22.42;12.60;;;;;;;;;;5062793;28;20053;-81
2022/01/15 08:58:43;;;;;;;22.42;12.52;;;;;;;;;;5045922;28;20049;-82
2022/01/15 09:01:13;;;;;;;22.75;11.88;;;;;;;;;;5044542;28;20040;-81
2022/01/15 09:03:40;;;;;;;21.55;12.23;;;;;;;;;;5047907;28;20037;-82
2022/01/15 09:06:06;;;;;;;21.63;12.73;;;;;;;;;;5047141;28;20064;-82
2022/01/15 09:08:32;;;;;;;21.48;12.35;;;;;;;;;;5048098;28;20036;-81
2022/01/15 09:10:58;;;;;;;20.15;12.85;;;;;;;;;;5064490;28;20407;-83
2022/01/15 09:13:24;;;;;;;23.27;13.70;;;;;;;;;;5046986;28;20041;-82
2022/01/15 09:15:50;;;;;;;22.45;13.35;;;;;;;;;;5047041;28;20049;-82
2022/01/15 09:18:17;;;;;;;20.88;12.88;;;;;;;;;;5045303;28;20049;-81
2022/01/15 09:20:43;;;;;;;22.80;12.10;;;;;;;;;;5063342;28;20033;-82
2022/01/15 09:23:10;;;;;;;22.20;11.30;;;;;;;;;;5062277;28;20033;-83
2022/01/15 09:25:36;;;;;;;18.55;11.60;;;;;;;;;;5062663;28;20051;-82
2022/01/15 09:30:47;;;;;;;24.27;12.98;;;;;;;;;;5060135;28;20496;-82
2022/01/15 09:33:13;;;;;;;23.55;13.05;;;;;;;;;;5043286;28;20067;-83
2022/01/15 09:35:39;;;;;;;19.90;12.57;;;;;;;;;;5042989;28;20049;-83
2022/01/15 09:38:05;;;;;;;21.27;12.75;;;;;;;;;;5042964;28;20052;-83
2022/01/15 09:40:31;;;;;;;20.08;11.85;;;;;;;;;;5043165;28;20060;-82
2022/01/15 09:42:57;;;;;;;19.83;12.02;;;;;;;;;;5042719;28;20091;-83
2022/01/15 09:45:23;;;;;;;20.77;12.40;;;;;;;;;;5059266;28;20112;-82
2022/01/15 09:47:54;;;;;;;20.67;11.68;;;;;;;;;;5058931;28;20339;-82
2022/01/15 09:50:20;;;;;;;19.70;11.25;;;;;;;;;;5058747;28;20041;-82
2022/01/15 09:52:46;;;;;;;19.77;11.15;;;;;;;;;;5042303;28;20128;-83
2022/01/15 09:55:13;;;;;;;18.88;11.00;;;;;;;;;;5042051;28;20060;-83
2022/01/15 09:57:39;;;;;;;20.40;11.77;;;;;;;;;;5058803;28;20053;-82
2022/01/15 10:00:07;;;;;;;18.55;11.63;;;;;;;;;;5058769;28;20037;-83
2022/01/15 10:02:33;;;;;;;21.83;13.32;;;;;;;;;;5057920;28;20507;-82
2022/01/15 10:04:59;;;;;;;18.65;12.10;;;;;;;;;;5057164;28;20041;-82
2022/01/15 10:07:27;;;;;;;16.63;10.32;;;;;;;;;;5057238;28;20487;-82
2022/01/15 10:09:54;;;;;;;19.23;10.85;;;;;;;;;;5057476;28;20072;-83
2022/01/15 10:12:24;;;;;;;17.63;10.38;;;;;;;;;;5059181;28;20124;-83
2022/01/15 10:14:50;;;;;;;15.60;10.32;;;;;;;;;;5042851;28;20036;-84
2022/01/15 10:17:26;;;;;;;21.67;10.98;;;;;;;;;;5043139;28;20040;-84
2022/01/15 10:19:52;;;;;;;17.52;11.07;;;;;;;;;;5046375;28;20033;-84
2022/01/15 10:22:22;;;;;;;18.90;11.00;;;;;;;;;;5072190;28;20033;-82
2022/01/15 10:24:52;;;;;;;20.40;11.88;;;;;;;;;;5073405;28;20072;-84
2022/01/15 10:27:48;;;;;;;19.90;11.95;;;;;;;;;;5074298;28;20028;-83
2022/01/15 10:30:14;;;;;;;21.98;12.95;;;;;;;;;;5065774;28;20044;-84
2022/01/15 10:32:41;;;;;;;26.23;14.55;;;;;;;;;;5063729;28;20095;-82
2022/01/15 10:35:14;;;;;;;26.92;15.45;;;;;;;;;;5047572;28;20124;-82
2022/01/15 10:37:59;;;;;;;25.73;16.02;;;;;;;;;;5063693;28;20045;-82
2022/01/15 10:40:29;;;;;;;31.40;17.77;;;;;;;;;;5058546;28;20155;-83
2022/01/15 10:42:59;;;;;;;30.77;17.10;;;;;;;;;;5065043;28;20052;-83
2022/01/15 10:45:26;;;;;;;29.27;16.15;;;;;;;;;;5047724;28;20142;-81
2022/01/15 10:47:55;;;;;;;27.73;15.98;;;;;;;;;;5065778;28;20040;-83
2022/01/15 10:50:24;;;;;;;26.30;16.63;;;;;;;;;;5047125;28;20052;-83
2022/01/15 10:52:50;;;;;;;24.75;14.98;;;;;;;;;;5062551;28;20043;-83
2022/01/15 10:55:16;;;;;;;24.90;14.65;;;;;;;;;;5062043;28;20032;-83
2022/01/15 10:57:43;;;;;;;24.65;13.75;;;;;;;;;;5062056;28;20041;-83
2022/01/15 11:00:09;;;;;;;20.17;12.35;;;;;;;;;;5062506;28;20025;-82
2022/01/15 11:02:36;;;;;;;19.10;12.20;;;;;;;;;;5061692;28;20064;-83
2022/01/15 11:05:02;;;;;;;22.75;13.82;;;;;;;;;;5043839;28;20043;-82
2022/01/15 11:07:28;;;;;;;20.98;13.32;;;;;;;;;;5043575;28;20134;-83
2022/01/15 11:09:54;;;;;;;22.85;13.85;;;;;;;;;;5044106;28;20480;-83
2022/01/15 11:12:20;;;;;;;22.55;13.43;;;;;;;;;;5045100;28;20052;-82
2022/01/15 11:14:46;;;;;;;19.92;12.45;;;;;;;;;;5047233;28;20427;-82
2022/01/15 11:17:13;;;;;;;21.63;12.55;;;;;;;;;;5047930;28;20071;-82
2022/01/15 11:19:39;;;;;;;17.08;10.18;;;;;;;;;;5072485;28;20041;-83
2022/01/15 11:22:05;;;;;;;16.48;9.88;;;;;;;;;;5053626;28;20052;-82
2022/01/15 11:24:31;;;;;;;18.02;9.98;;;;;;;;;;5061817;28;20039;-82
2022/01/15 11:27:00;;;;;;;14.88;9.40;;;;;;;;;;5049683;28;20120;-82
2022/01/15 11:29:26;;;;;;;16.85;10.25;;;;;;;;;;5046041;28;20060;-82
2022/01/15 11:31:58;;;;;;;21.83;11.10;;;;;;;;;;5064832;28;20045;-82
2022/01/15 11:34:24;;;;;;;19.52;12.40;;;;;;;;;;5076870;28;20105;-82
2022/01/15 11:36:50;;;;;;;20.35;13.35;;;;;;;;;;5070698;28;20499;-81
2022/01/15 11:39:27;;;;;;;25.95;15.52;;;;;;;;;;5053755;28;20037;-81
2022/01/15 11:41:55;;;;;;;31.10;17.58;;;;;;;;;;5062035;28;20095;-81
2022/01/15 11:44:35;;;;;;;24.98;14.02;;;;;;;;;;5062202;28;20047;-80
2022/01/15 11:47:23;;;;;;;20.55;13.07;;;;;;;;;;5073592;28;20055;-82
2022/01/15 11:49:50;;;;;;;21.55;12.93;;;;;;;;;;5064069;28;20106;-82
2022/01/15 11:52:18;;;;;;;23.10;14.23;;;;;;;;;;5062803;28;20052;-81
2022/01/15 11:55:04;;;;;;;27.88;15.25;;;;;;;;;;5062756;28;20041;-81
2022/01/15 11:57:31;;;;;;;27.98;16.60;;;;;;;;;;5063229;28;20059;-82
2022/01/15 11:59:57;;;;;;;30.73;16.35;;;;;;;;;;5061581;28;20040;-81
2022/01/15 12:02:30;;;;;;;27.48;15.73;;;;;;;;;;5063333;28;20041;-80
2022/01/15 12:04:56;;;;;;;;;;;;;;;;;;5048560;28;20068;-81
2022/01/15 12:07:23;;;;;;;31.17;16.60;;;;;;;;;;5064570;28;19908;-80
2022/01/15 12:09:50;;;;;;;26.25;15.02;;;;;;;;;;5063802;28;20361;-81
2022/01/15 12:14:51;;;;;;;24.60;14.65;;;;;;;;;;5063955;28;20071;-82
2022/01/15 12:17:31;;;;;;;27.70;15.80;;;;;;;;;;5044939;28;20471;-81
2022/01/15 12:19:57;;;;;;;25.40;14.85;;;;;;;;;;5061088;28;20206;-80
2022/01/15 12:22:36;;;;;;;22.55;13.57;;;;;;;;;;5044980;28;20048;-83
2022/01/15 12:25:02;;;;;;;23.25;14.07;;;;;;;;;;5049967;28;20033;-80
2022/01/15 12:27:29;;;;;;;25.35;14.77;;;;;;;;;;5051154;28;20041;-79
2022/01/15 12:30:06;;;;;;;25.30;14.98;;;;;;;;;;5070655;28;20399;-81
2022/01/15 12:32:38;;;;;;;23.23;14.43;;;;;;;;;;5055282;28;20063;-79
2022/01/15 12:35:04;;;;;;;26.75;15.10;;;;;;;;;;5047039;28;20098;-80
2022/01/15 12:37:30;;;;;;;22.77;14.70;;;;;;;;;;5061926;28;20041;-81
2022/01/15 12:39:56;;;;;;;23.02;13.88;;;;;;;;;;5061452;28;20120;-83
2022/01/15 12:42:28;;;;;;;22.00;13.43;;;;;;;;;;5045519;28;20048;-81
2022/01/15 12:44:54;;;;;;;20.80;13.05;;;;;;;;;;5062319;28;20048;-81
2022/01/15 12:47:21;;;;;;;20.92;12.73;;;;;;;;;;5061274;28;20064;-81
2022/01/15 12:49:48;;;;;;;22.15;14.07;;;;;;;;;;5062610;28;20044;-81
2022/01/15 12:52:16;;;;;;;21.95;13.52;;;;;;;;;;5045507;28;20041;-83
2022/01/15 12:54:42;;;;;;;26.00;14.55;;;;;;;;;;5061506;28;20040;-82
2022/01/15 12:57:08;;;;;;;23.73;15.25;;;;;;;;;;5062267;28;20049;-83
2022/01/15 12:59:34;;;;;;;22.50;14.63;;;;;;;;;;5046950;28;20041;-80
2022/01/15 13:02:01;;;;;;;24.05;14.02;;;;;;;;;;5062370;28;20024;-80
2022/01/15 13:04:27;;;;;;;20.20;13.45;;;;;;;;;;5062275;28;20036;-82
2022/01/15 13:07:00;;;;;;;23.05;13.30;;;;;;;;;;5047602;28;20044;-83
2022/01/15 13:09:39;;;;;;;22.35;12.48;;;;;;;;;;5045544;28;20083;-80
2022/01/15 13:12:07;;;;;;;22.67;12.98;;;;;;;;;;5045257;28;20048;-82
2022/01/15 13:14:45;;;;;;;19.38;12.73;;;;;;;;;;5086019;28;20036;-80
2022/01/15 13:17:27;;;;;;;21.05;13.00;;;;;;;;;;5095767;28;20088;-79
2022/01/15 13:19:53;;;;;;;25.13;12.77;;;;;;;;;;5074321;28;20032;-80
2022/01/15 13:22:19;;;;;;;20.13;13.23;;;;;;;;;;5068806;28;20047;-79
2022/01/15 13:24:45;;;;;;;20.55;12.35;;;;;;;;;;5068058;28;20106;-81
2022/01/15 13:27:11;;;;;;;21.65;12.55;;;;;;;;;;5082985;28;20113;-82
2022/01/15 13:29:38;;;;;;;21.10;12.55;;;;;;;;;;5067151;28;20051;-82
2022/01/15 13:32:07;;;;;;;19.05;12.68;;;;;;;;;;5067547;28;20044;-82
2022/01/15 13:34:34;;;;;;;20.17;12.38;;;;;;;;;;5066275;28;20051;-83
2022/01/15 13:37:11;;;;;;;18.88;12.40;;;;;;;;;;5082831;28;20537;-84
2022/01/15 13:39:37;;;;;;;17.98;12.35;;;;;;;;;;5082845;28;20448;-83
2022/01/15 13:42:04;;;;;;;23.30;12.55;;;;;;;;;;5081330;28;20064;-83
2022/01/15 13:44:31;;;;;;;21.63;13.00;;;;;;;;;;5067271;28;20040;-83
2022/01/15 13:47:05;;;;;;;21.55;13.50;;;;;;;;;;5081357;28;20084;-82
2022/01/15 13:53:04;;;;;;;19.25;12.65;;;;;;;;;;5081036;28;20468;-81
2022/01/15 13:55:12;;;;;;;21.73;13.38;;;;;;;;;;5083800;28;20040;-83
2022/01/15 13:57:40;;;;;;;21.10;12.88;;;;;;;;;;5061331;28;20049;-87
2022/01/15 14:00:07;;;;;;;23.63;13.98;;;;;;;;;;5049640;28;20037;-85
2022/01/15 14:02:33;;;;;;;22.55;13.50;;;;;;;;;;5046309;28;20037;-83
2022/01/15 14:05:28;;;;;;;20.92;13.40;;;;;;;;;;5055276;28;20088;-80
2022/01/15 14:07:54;;;;;;;19.35;13.05;;;;;;;;;;5072765;28;20045;-84
2022/01/15 14:10:25;;;;;;;23.73;13.20;;;;;;;;;;5060809;28;20044;-81
2022/01/15 14:12:58;;;;;;;20.70;13.88;;;;;;;;;;5042613;28;20055;-80
2022/01/15 14:15:34;;;;;;;23.08;14.40;;;;;;;;;;5060251;28;20358;-85
2022/01/15 14:18:03;;;;;;;27.63;15.77;;;;;;;;;;5043368;28;20449;-80
2022/01/15 14:21:15;;;;;;;23.15;14.93;;;;;;;;;;5059815;28;20048;-82
2022/01/15 14:23:28;;;;;;;23.50;15.13;;;;;;;;;;5059484;28;20036;-83
2022/01/15 14:25:54;;;;;;;23.50;14.88;;;;;;;;;;5060648;28;20114;-83
2022/01/15 14:28:23;;;;;;;24.52;14.43;;;;;;;;;;5042789;28;20461;-84
2022/01/15 14:30:51;;;;;;;22.83;15.07;;;;;;;;;;5041382;28;20041;-82
2022/01/15 14:33:18;;;;;;;24.08;14.20;;;;;;;;;;5043531;28;20567;-82
2022/01/15 14:35:45;;;;;;;25.42;15.18;;;;;;;;;;5039708;28;20068;-84
2022/01/15 14:38:11;;;;;;;25.85;14.73;;;;;;;;;;5030345;28;20042;-83
2022/01/15 14:40:37;;;;;;;22.38;14.85;;;;;;;;;;5035977;28;20043;-85
2022/01/15 14:43:03;;;;;;;21.48;14.15;;;;;;;;;;5024244;28;20033;-81
2022/01/15 14:45:29;;;;;;;26.40;15.25;;;;;;;;;;5023484;28;20033;-80